createdAt,value
2023-05-19T00:00:14.820Z,51.69
2023-05-19T00:02:44.856Z,51.79
2023-05-19T00:05:15.152Z,51.68
2023-05-19T00:07:44.027Z,51.62
2023-05-19T00:10:13.943Z,51.70
2023-05-19T00:12:42.906Z,51.56
2023-05-19T00:15:13.153Z,51.72
2023-05-19T00:17:42.454Z,51.59
2023-05-19T00:20:12.589Z,51.80
2023-05-19T00:22:44.054Z,51.73
2023-05-19T00:25:13.242Z,52.12
2023-05-19T00:27:41.972Z,51.93
2023-05-19T00:30:11.770Z,52.05
2023-05-19T00:32:41.684Z,51.95
2023-05-19T00:35:11.546Z,52.07
2023-05-19T00:37:40.422Z,52.05
2023-05-19T00:40:10.856Z,52.12
2023-05-19T00:42:39.712Z,51.99
2023-05-19T00:45:09.680Z,52.11
2023-05-19T00:47:38.616Z,52.11
2023-05-19T00:50:08.188Z,52.25
2023-05-19T00:52:36.990Z,52.36
2023-05-19T00:55:06.273Z,52.44
2023-05-19T00:57:35.026Z,52.48
2023-05-19T01:00:05.629Z,52.50
2023-05-19T01:02:38.149Z,52.50
2023-05-19T01:05:08.512Z,52.49
2023-05-19T01:07:37.833Z,52.65
2023-05-19T01:10:07.160Z,52.66
2023-05-19T01:12:36.006Z,52.65
2023-05-19T01:15:05.402Z,52.68
2023-05-19T01:17:36.121Z,52.59
2023-05-19T01:20:07.927Z,52.75
2023-05-19T01:22:43.680Z,52.89
2023-05-19T01:25:26.048Z,52.89
2023-05-19T01:28:11.461Z,52.84
2023-05-19T01:30:47.878Z,52.96
2023-05-19T01:33:16.657Z,53.07
2023-05-19T01:35:45.750Z,53.06
2023-05-19T01:38:14.503Z,53.18
2023-05-19T01:40:44.049Z,53.23
2023-05-19T01:43:14.253Z,53.27
2023-05-19T01:45:43.275Z,53.14
2023-05-19T01:48:12.981Z,53.28
2023-05-19T01:50:42.297Z,53.20
2023-05-19T01:53:11.474Z,53.22
2023-05-19T01:55:43.668Z,53.29
2023-05-19T01:58:17.945Z,53.25
2023-05-19T02:00:49.621Z,53.34
2023-05-19T02:03:23.536Z,53.19
2023-05-19T02:05:54.528Z,53.18
2023-05-19T02:08:24.961Z,53.24
2023-05-19T02:10:56.494Z,53.25
2023-05-19T02:13:26.809Z,53.36
2023-05-19T02:15:55.654Z,53.36
2023-05-19T02:18:25.096Z,53.45
2023-05-19T02:20:53.828Z,53.59
2023-05-19T02:23:22.792Z,53.59
2023-05-19T02:25:51.587Z,53.61
2023-05-19T02:28:21.935Z,53.65
2023-05-19T02:30:50.704Z,53.68
2023-05-19T02:33:20.037Z,53.47
2023-05-19T02:35:48.959Z,53.45
2023-05-19T02:38:18.476Z,53.58
2023-05-19T02:40:47.202Z,53.68
2023-05-19T02:43:16.086Z,53.73
2023-05-19T02:45:46.234Z,53.60
2023-05-19T02:48:15.042Z,53.60
2023-05-19T02:50:43.868Z,53.61
2023-05-19T02:53:12.603Z,53.84
2023-05-19T02:55:41.355Z,53.91
2023-05-19T02:58:10.155Z,53.89
2023-05-19T03:00:39.016Z,54.01
2023-05-19T03:03:10.368Z,54.03
2023-05-19T03:05:39.295Z,53.99
2023-05-19T03:08:08.195Z,53.87
2023-05-19T03:10:37.408Z,53.69
2023-05-19T03:13:06.181Z,53.90
2023-05-19T03:15:36.667Z,53.81
2023-05-19T03:18:06.250Z,53.89
2023-05-19T03:20:35.138Z,54.06
2023-05-19T03:23:03.950Z,54.00
2023-05-19T03:25:32.774Z,54.05
2023-05-19T03:28:01.577Z,54.09
2023-05-19T03:30:30.667Z,54.10
2023-05-19T03:33:11.264Z,54.27
2023-05-19T03:35:41.793Z,54.35
2023-05-19T03:38:10.911Z,54.37
2023-05-19T03:40:41.362Z,54.56
2023-05-19T03:43:11.916Z,54.55
2023-05-19T03:45:46.684Z,54.46
2023-05-19T03:48:34.196Z,54.42
2023-05-19T03:51:29.972Z,54.60
2023-05-19T03:54:04.576Z,54.49
2023-05-19T03:56:34.125Z,54.39
2023-05-19T03:59:02.999Z,54.22
2023-05-19T04:01:31.832Z,53.94
2023-05-19T04:04:00.757Z,53.65
2023-05-19T04:06:29.782Z,53.35
2023-05-19T04:08:58.616Z,52.82
2023-05-19T04:11:27.393Z,52.52
2023-05-19T04:13:56.602Z,52.14
2023-05-19T04:16:25.503Z,51.90
2023-05-19T04:18:54.475Z,51.51
2023-05-19T04:21:23.442Z,51.45
2023-05-19T04:23:52.820Z,51.32
2023-05-19T04:26:22.535Z,51.06
2023-05-19T04:28:52.085Z,50.81
2023-05-19T04:31:21.729Z,50.52
2023-05-19T04:33:50.587Z,50.24
2023-05-19T04:36:21.573Z,49.63
2023-05-19T04:38:54.843Z,49.66
2023-05-19T04:41:25.050Z,49.44
2023-05-19T04:43:53.834Z,48.95
2023-05-19T04:46:24.420Z,48.27
2023-05-19T04:48:55.537Z,47.69
2023-05-19T04:51:30.340Z,46.98
2023-05-19T04:54:00.371Z,46.73
2023-05-19T04:56:30.062Z,46.27
2023-05-19T04:58:59.308Z,45.82
2023-05-19T05:01:31.359Z,45.95
2023-05-19T05:04:02.596Z,45.57
2023-05-19T05:06:32.445Z,45.09
2023-05-19T05:09:01.440Z,44.44
2023-05-19T05:11:31.335Z,43.79
2023-05-19T05:14:01.971Z,44.20
2023-05-19T05:16:32.028Z,44.06
2023-05-19T05:19:01.596Z,44.25
2023-05-19T05:21:31.805Z,44.04
2023-05-19T05:24:02.260Z,43.51
2023-05-19T05:26:33.674Z,43.60
2023-05-19T05:29:02.992Z,43.21
2023-05-19T05:31:32.547Z,43.40
2023-05-19T05:34:01.536Z,43.74
2023-05-19T05:36:32.153Z,43.57
2023-05-19T05:39:02.476Z,43.27
2023-05-19T05:41:35.170Z,42.69
2023-05-19T05:44:06.845Z,42.35
2023-05-19T05:46:36.045Z,42.79
2023-05-19T05:49:05.721Z,42.48
2023-05-19T05:51:35.802Z,42.37
2023-05-19T05:54:05.972Z,41.60
2023-05-19T05:56:39.345Z,41.62
2023-05-19T05:59:09.634Z,41.05
2023-05-19T06:01:38.488Z,40.66
2023-05-19T06:04:09.812Z,40.83
2023-05-19T06:06:39.096Z,40.41
2023-05-19T06:09:08.098Z,39.32
2023-05-19T06:11:37.149Z,38.89
2023-05-19T06:14:09.354Z,39.09
2023-05-19T06:16:53.132Z,38.61
2023-05-19T06:19:26.192Z,37.75
2023-05-19T06:21:55.255Z,38.16
2023-05-19T06:24:24.477Z,37.85
2023-05-19T06:26:53.400Z,38.02
2023-05-19T06:29:22.332Z,37.78
2023-05-19T06:31:51.724Z,36.68
2023-05-19T06:34:21.089Z,37.32
2023-05-19T06:36:49.948Z,37.11
2023-05-19T06:39:20.210Z,37.02
2023-05-19T06:41:49.491Z,37.00
2023-05-19T06:44:29.860Z,36.88
2023-05-19T06:46:58.703Z,37.22
2023-05-19T06:49:29.642Z,36.87
2023-05-19T06:51:58.542Z,37.01
2023-05-19T06:54:27.558Z,37.63
2023-05-19T06:56:56.367Z,38.44
2023-05-19T06:59:25.398Z,38.30
2023-05-19T07:01:54.273Z,38.32
2023-05-19T07:04:23.137Z,38.76
2023-05-19T07:06:51.928Z,38.57
2023-05-19T07:09:20.983Z,38.92
2023-05-19T07:11:50.929Z,39.00
2023-05-19T07:14:21.341Z,39.32
2023-05-19T07:16:50.478Z,39.43
2023-05-19T07:19:20.103Z,38.87
2023-05-19T07:21:49.131Z,37.73
2023-05-19T07:24:17.954Z,38.07
2023-05-19T07:26:47.631Z,37.72
2023-05-19T07:29:16.519Z,37.49
2023-05-19T07:31:45.550Z,37.15
2023-05-19T07:34:14.447Z,36.10
2023-05-19T07:36:43.280Z,36.62
2023-05-19T07:39:12.183Z,36.82
2023-05-19T07:41:41.315Z,37.51
2023-05-19T07:44:10.763Z,37.26
2023-05-19T07:46:39.674Z,36.63
2023-05-19T07:49:08.522Z,36.12
2023-05-19T07:51:37.385Z,35.63
2023-05-19T07:54:07.091Z,35.88
2023-05-19T07:56:36.004Z,35.91
2023-05-19T07:59:05.128Z,36.52
2023-05-19T08:01:33.907Z,36.57
2023-05-19T08:04:02.776Z,36.32
2023-05-19T08:06:31.785Z,35.51
2023-05-19T08:09:00.648Z,35.40
2023-05-19T08:11:29.417Z,35.70
2023-05-19T08:13:58.146Z,34.98
2023-05-19T08:16:27.059Z,35.15
2023-05-19T08:18:56.407Z,34.67
2023-05-19T08:21:25.254Z,34.88
2023-05-19T08:23:54.005Z,34.28
2023-05-19T08:26:22.955Z,34.62
2023-05-19T08:28:51.720Z,34.39
2023-05-19T08:31:20.650Z,34.61
2023-05-19T08:33:49.504Z,34.66
2023-05-19T08:36:18.300Z,34.79
2023-05-19T08:38:47.166Z,34.35
2023-05-19T08:41:16.585Z,34.43
2023-05-19T08:43:45.538Z,34.15
2023-05-19T08:46:16.412Z,34.08
2023-05-19T08:48:45.886Z,34.05
2023-05-19T08:51:19.289Z,33.56
2023-05-19T08:53:50.125Z,33.54
2023-05-19T08:56:19.178Z,34.00
2023-05-19T08:58:48.111Z,33.56
2023-05-19T09:01:17.751Z,33.56
2023-05-19T09:03:46.956Z,33.29
2023-05-19T09:06:16.182Z,32.71
2023-05-19T09:08:45.027Z,32.58
2023-05-19T09:11:14.125Z,31.66
2023-05-19T09:13:43.899Z,31.62
2023-05-19T09:16:13.189Z,31.31
2023-05-19T09:18:42.822Z,31.70
2023-05-19T09:21:15.559Z,30.22
2023-05-19T09:23:44.408Z,31.33
2023-05-19T09:26:13.145Z,32.05
2023-05-19T09:28:42.005Z,31.84
2023-05-19T09:31:10.911Z,31.74
2023-05-19T09:33:40.632Z,31.60
2023-05-19T09:36:11.015Z,31.01
2023-05-19T09:38:40.078Z,30.73
2023-05-19T09:41:09.384Z,30.00
2023-05-19T09:43:38.928Z,30.23
2023-05-19T09:46:08.312Z,30.98
2023-05-19T09:48:37.407Z,31.12
2023-05-19T09:51:07.721Z,31.04
2023-05-19T09:53:36.610Z,30.90
2023-05-19T09:56:05.598Z,31.45
2023-05-19T09:58:36.358Z,30.86
2023-05-19T10:01:06.043Z,30.05
2023-05-19T10:03:35.476Z,29.73
2023-05-19T10:06:04.622Z,29.64
2023-05-19T10:08:33.424Z,29.18
2023-05-19T10:11:02.301Z,29.67
2023-05-19T10:13:31.404Z,29.34
2023-05-19T10:16:00.891Z,28.76
2023-05-19T10:18:30.279Z,28.88
2023-05-19T10:20:59.078Z,29.34
2023-05-19T10:23:27.883Z,29.29
2023-05-19T10:25:57.691Z,28.52
2023-05-19T10:28:28.196Z,28.75
2023-05-19T10:30:57.806Z,28.26
2023-05-19T10:33:41.786Z,27.93
2023-05-19T10:36:23.098Z,28.00
2023-05-19T10:38:53.778Z,29.09
2023-05-19T10:41:26.260Z,29.64
2023-05-19T10:43:57.193Z,29.93
2023-05-19T10:46:26.895Z,29.74
2023-05-19T10:48:55.728Z,29.75
2023-05-19T10:51:28.765Z,29.44
2023-05-19T10:53:58.817Z,29.61
2023-05-19T10:56:33.676Z,29.98
2023-05-19T10:59:02.535Z,29.84
2023-05-19T11:01:33.280Z,29.36
2023-05-19T11:04:06.846Z,29.11
2023-05-19T11:06:37.745Z,28.06
2023-05-19T11:09:12.447Z,28.13
2023-05-19T11:11:47.737Z,27.86
2023-05-19T11:14:16.922Z,27.39
2023-05-19T11:16:47.498Z,26.01
2023-05-19T11:19:20.963Z,25.69
2023-05-19T11:21:50.497Z,25.64
2023-05-19T11:24:32.864Z,25.65
2023-05-19T11:27:01.926Z,25.33
2023-05-19T11:29:31.275Z,24.69
2023-05-19T11:32:01.537Z,24.30
2023-05-19T11:34:31.324Z,24.42
2023-05-19T11:37:00.189Z,23.85
2023-05-19T11:39:29.143Z,23.90
2023-05-19T11:41:58.192Z,23.80
2023-05-19T11:44:27.040Z,24.27
2023-05-19T11:46:56.238Z,25.09
2023-05-19T11:49:25.233Z,25.80
2023-05-19T11:51:54.218Z,26.37
2023-05-19T11:54:23.080Z,26.44
2023-05-19T11:56:51.928Z,26.24
2023-05-19T11:59:20.798Z,25.78
2023-05-19T12:01:49.565Z,25.63
2023-05-19T12:04:21.161Z,24.48
2023-05-19T12:06:52.410Z,24.03
2023-05-19T12:09:21.315Z,24.28
2023-05-19T12:11:50.169Z,23.30
2023-05-19T12:14:18.983Z,23.11
2023-05-19T12:16:47.878Z,23.10
2023-05-19T12:19:16.811Z,22.43
2023-05-19T12:21:45.929Z,22.36
2023-05-19T12:24:15.345Z,22.37
2023-05-19T12:26:44.821Z,22.24
2023-05-19T12:29:15.241Z,22.53
2023-05-19T12:31:44.357Z,22.91
2023-05-19T12:34:14.560Z,23.23
2023-05-19T12:36:43.441Z,23.69
2023-05-19T12:39:12.264Z,24.42
2023-05-19T12:41:41.038Z,24.78
2023-05-19T12:44:16.110Z,24.58
2023-05-19T12:46:46.085Z,24.18
2023-05-19T12:49:15.033Z,24.04
2023-05-19T12:51:44.152Z,23.81
2023-05-19T12:54:13.048Z,23.84
2023-05-19T12:56:41.855Z,23.95
2023-05-19T12:59:10.635Z,23.97
2023-05-19T13:01:39.853Z,24.02
2023-05-19T13:04:08.973Z,24.02
2023-05-19T13:06:38.039Z,24.06
2023-05-19T13:09:07.346Z,23.66
2023-05-19T13:11:36.167Z,23.36
2023-05-19T13:14:04.991Z,22.61
2023-05-19T13:16:34.017Z,23.44
2023-05-19T13:19:03.760Z,22.87
2023-05-19T13:21:32.699Z,23.36
2023-05-19T13:24:01.527Z,23.96
2023-05-19T13:26:30.556Z,24.83
2023-05-19T13:28:59.676Z,25.26
2023-05-19T13:31:28.755Z,26.18
2023-05-19T13:33:57.635Z,27.26
2023-05-19T13:36:27.648Z,27.79
2023-05-19T13:38:56.455Z,27.70
2023-05-19T13:41:26.174Z,27.91
2023-05-19T13:43:55.033Z,26.91
2023-05-19T13:46:36.681Z,25.59
2023-05-19T13:49:12.775Z,24.21
2023-05-19T13:51:43.209Z,22.96
2023-05-19T13:54:12.080Z,21.78
2023-05-19T13:56:41.069Z,21.91
2023-05-19T13:59:09.954Z,22.11
2023-05-19T14:01:38.827Z,22.51
2023-05-19T14:04:08.594Z,22.78
2023-05-19T14:06:38.269Z,22.03
2023-05-19T14:09:07.360Z,21.84
2023-05-19T14:11:36.228Z,21.77
2023-05-19T14:14:05.009Z,22.81
2023-05-19T14:16:35.182Z,23.83
2023-05-19T14:19:05.441Z,24.96
2023-05-19T14:21:35.193Z,25.50
2023-05-19T14:24:04.048Z,25.23
2023-05-19T14:26:32.896Z,24.17
2023-05-19T14:29:02.612Z,23.61
2023-05-19T14:31:33.561Z,23.07
2023-05-19T14:34:02.365Z,21.80
2023-05-19T14:36:31.705Z,21.71
2023-05-19T14:39:00.518Z,21.76
2023-05-19T14:41:29.312Z,21.77
2023-05-19T14:43:58.088Z,22.51
2023-05-19T14:46:26.993Z,23.87
2023-05-19T14:48:55.945Z,24.52
2023-05-19T14:51:24.682Z,25.92
2023-05-19T14:53:53.573Z,26.84
2023-05-19T14:56:22.565Z,28.09
2023-05-19T14:58:51.306Z,28.45
2023-05-19T15:01:20.174Z,27.73
2023-05-19T15:03:48.996Z,27.44
2023-05-19T15:06:17.978Z,28.52
2023-05-19T15:08:46.758Z,28.19
2023-05-19T15:11:15.528Z,29.13
2023-05-19T15:13:44.324Z,30.11
2023-05-19T15:16:16.928Z,30.80
2023-05-19T15:18:46.203Z,31.29
2023-05-19T15:21:15.097Z,30.57
2023-05-19T15:23:43.845Z,30.67
2023-05-19T15:26:12.872Z,30.57
2023-05-19T15:28:41.756Z,30.31
2023-05-19T15:31:13.012Z,29.96
2023-05-19T15:33:41.993Z,29.83
2023-05-19T15:36:16.156Z,29.87
2023-05-19T15:38:46.933Z,30.82
2023-05-19T15:41:15.799Z,31.50
2023-05-19T15:43:47.191Z,31.61
2023-05-19T15:46:16.223Z,32.27
2023-05-19T15:48:45.159Z,32.61
2023-05-19T15:51:14.888Z,32.93
2023-05-19T15:53:44.184Z,33.40
2023-05-19T15:56:13.523Z,33.99
2023-05-19T15:58:42.771Z,34.09
2023-05-19T16:01:12.269Z,34.04
2023-05-19T16:03:41.308Z,34.57
2023-05-19T16:06:10.772Z,34.67
2023-05-19T16:08:39.676Z,34.89
2023-05-19T16:11:08.669Z,34.83
2023-05-19T16:13:37.443Z,35.00
2023-05-19T16:16:07.737Z,35.13
2023-05-19T16:18:36.678Z,35.50
2023-05-19T16:21:05.844Z,35.33
2023-05-19T16:23:34.646Z,35.32
2023-05-19T16:26:03.467Z,35.33
2023-05-19T16:28:32.426Z,35.37
2023-05-19T16:31:01.269Z,35.52
2023-05-19T16:33:30.188Z,35.81
2023-05-19T16:36:01.260Z,35.34
2023-05-19T16:38:30.573Z,35.53
2023-05-19T16:40:59.436Z,35.47
2023-05-19T16:43:28.398Z,34.78
2023-05-19T16:45:57.320Z,34.96
2023-05-19T16:48:27.012Z,35.13
2023-05-19T16:50:55.810Z,34.37
2023-05-19T16:53:24.698Z,34.58
2023-05-19T16:55:53.529Z,34.82
2023-05-19T16:58:22.378Z,35.13
2023-05-19T17:00:53.404Z,35.46
2023-05-19T17:03:22.437Z,35.60
2023-05-19T17:05:51.327Z,35.33
2023-05-19T17:08:20.260Z,35.05
2023-05-19T17:10:49.766Z,35.14
2023-05-19T17:13:18.644Z,34.99
2023-05-19T17:15:52.404Z,35.32
2023-05-19T17:18:21.342Z,35.38
2023-05-19T17:20:50.167Z,35.33
2023-05-19T17:23:19.665Z,35.83
2023-05-19T17:25:48.476Z,35.90
2023-05-19T17:28:17.329Z,36.12
2023-05-19T17:30:46.232Z,36.50
2023-05-19T17:33:15.428Z,36.76
2023-05-19T17:35:44.266Z,37.21
2023-05-19T17:38:15.700Z,37.38
2023-05-19T17:40:44.563Z,37.41
2023-05-19T17:43:13.667Z,37.52
2023-05-19T17:45:44.131Z,37.69
2023-05-19T17:48:13.176Z,37.70
2023-05-19T17:50:42.490Z,37.97
2023-05-19T17:53:11.672Z,38.24
2023-05-19T17:55:41.306Z,38.32
2023-05-19T17:58:10.718Z,38.42
2023-05-19T18:00:41.148Z,38.47
2023-05-19T18:03:10.434Z,38.89
2023-05-19T18:05:40.212Z,39.03
2023-05-19T18:08:09.538Z,39.01
2023-05-19T18:10:39.238Z,39.18
2023-05-19T18:13:08.840Z,39.34
2023-05-19T18:15:38.219Z,39.39
2023-05-19T18:18:07.803Z,39.60
2023-05-19T18:20:37.790Z,39.95
2023-05-19T18:23:07.057Z,39.99
2023-05-19T18:25:36.517Z,39.89
2023-05-19T18:28:06.155Z,39.95
2023-05-19T18:30:35.453Z,40.16
2023-05-19T18:33:04.492Z,40.30
2023-05-19T18:35:34.065Z,40.39
2023-05-19T18:38:03.020Z,40.73
2023-05-19T18:40:33.021Z,40.63
2023-05-19T18:43:02.134Z,40.83
2023-05-19T18:45:31.168Z,40.74
2023-05-19T18:48:00.043Z,40.75
2023-05-19T18:50:29.160Z,40.77
2023-05-19T18:52:57.933Z,40.86
2023-05-19T18:55:26.692Z,40.59
2023-05-19T18:57:55.526Z,41.14
2023-05-19T19:00:25.924Z,41.26
2023-05-19T19:02:54.831Z,41.16
2023-05-19T19:05:24.247Z,41.24
2023-05-19T19:07:53.377Z,41.35
2023-05-19T19:10:25.255Z,41.39
2023-05-19T19:12:54.495Z,41.35
2023-05-19T19:15:23.435Z,41.39
2023-05-19T19:17:53.181Z,41.69
2023-05-19T19:20:22.353Z,41.69
2023-05-19T19:22:55.527Z,41.86
2023-05-19T19:25:25.172Z,41.96
2023-05-19T19:27:54.370Z,42.00
2023-05-19T19:30:23.484Z,42.03
2023-05-19T19:32:52.946Z,42.11
2023-05-19T19:35:21.987Z,42.25
2023-05-19T19:37:51.724Z,42.40
2023-05-19T19:40:20.622Z,42.56
2023-05-19T19:42:49.452Z,42.47
2023-05-19T19:45:19.594Z,42.68
2023-05-19T19:47:48.740Z,42.72
2023-05-19T19:50:18.199Z,42.73
2023-05-19T19:52:50.238Z,42.96
2023-05-19T19:55:19.437Z,43.07
2023-05-19T19:57:49.378Z,43.05
2023-05-19T20:00:20.101Z,43.22
2023-05-19T20:03:03.565Z,43.25
2023-05-19T20:05:33.530Z,43.17
2023-05-19T20:08:02.452Z,43.25
2023-05-19T20:10:33.231Z,43.58
2023-05-19T20:13:03.055Z,43.60
2023-05-19T20:15:32.284Z,43.54
2023-05-19T20:18:01.934Z,43.64
2023-05-19T20:20:30.762Z,43.85
2023-05-19T20:23:00.398Z,43.91
2023-05-19T20:25:29.134Z,43.98
2023-05-19T20:27:58.697Z,44.03
2023-05-19T20:30:28.323Z,44.08
2023-05-19T20:32:57.714Z,44.17
2023-05-19T20:35:27.031Z,44.27
2023-05-19T20:37:56.237Z,44.34
2023-05-19T20:40:25.077Z,44.35
2023-05-19T20:42:53.873Z,44.55
2023-05-19T20:45:22.717Z,44.63
2023-05-19T20:47:51.666Z,44.72
2023-05-19T20:50:20.748Z,44.68
2023-05-19T20:52:49.576Z,44.79
2023-05-19T20:55:18.441Z,44.94
2023-05-19T20:57:47.366Z,45.00
2023-05-19T21:00:16.776Z,45.04
2023-05-19T21:02:45.718Z,45.16
2023-05-19T21:05:14.523Z,45.41
2023-05-19T21:07:43.355Z,45.52
2023-05-19T21:10:13.757Z,45.71
2023-05-19T21:12:42.563Z,45.93
2023-05-19T21:15:12.198Z,45.98
2023-05-19T21:17:41.124Z,46.24
2023-05-19T21:20:11.000Z,46.44
2023-05-19T21:22:40.821Z,46.37
2023-05-19T21:25:09.962Z,46.48
2023-05-19T21:27:39.520Z,46.55
2023-05-19T21:30:09.775Z,46.66
2023-05-19T21:32:38.662Z,46.62
2023-05-19T21:35:07.918Z,46.75
2023-05-19T21:37:37.273Z,46.86
2023-05-19T21:40:06.633Z,46.94
2023-05-19T21:42:35.457Z,47.09
2023-05-19T21:45:04.463Z,47.24
2023-05-19T21:47:33.263Z,47.21
2023-05-19T21:50:02.068Z,47.37
2023-05-19T21:52:31.338Z,47.35
2023-05-19T21:55:00.183Z,47.61
2023-05-19T21:57:28.927Z,47.73
2023-05-19T21:59:57.913Z,47.84
2023-05-19T22:02:26.858Z,48.11
2023-05-19T22:04:56.106Z,48.24
2023-05-19T22:07:26.886Z,48.26
2023-05-19T22:09:56.209Z,48.20
2023-05-19T22:12:25.054Z,48.33
2023-05-19T22:14:54.043Z,48.52
2023-05-19T22:17:22.812Z,48.67
2023-05-19T22:19:51.576Z,48.54
2023-05-19T22:22:20.524Z,48.87
2023-05-19T22:24:49.474Z,49.09
2023-05-19T22:27:18.220Z,49.10
2023-05-19T22:29:47.037Z,49.12
2023-05-19T22:32:18.239Z,49.24
2023-05-19T22:34:47.254Z,49.21
2023-05-19T22:37:16.148Z,49.41
2023-05-19T22:39:45.224Z,49.58
2023-05-19T22:42:13.989Z,49.79
2023-05-19T22:44:44.238Z,49.96
2023-05-19T22:47:13.808Z,49.98
2023-05-19T22:49:43.167Z,50.14
2023-05-19T22:52:11.959Z,50.18
2023-05-19T22:54:40.737Z,50.24
2023-05-19T22:57:09.486Z,50.38
2023-05-19T22:59:38.419Z,50.36
2023-05-19T23:02:07.290Z,50.39
2023-05-19T23:04:36.482Z,50.33
2023-05-19T23:07:05.702Z,50.44
2023-05-19T23:09:35.171Z,50.41
2023-05-19T23:12:04.009Z,50.59
2023-05-19T23:14:32.931Z,50.50
2023-05-19T23:17:01.712Z,50.69
2023-05-19T23:19:31.889Z,50.87
2023-05-19T23:22:00.826Z,50.99
2023-05-19T23:24:29.677Z,51.00
2023-05-19T23:26:58.504Z,51.04
2023-05-19T23:29:27.406Z,51.14
2023-05-19T23:31:56.165Z,51.32
2023-05-19T23:34:25.145Z,51.42
2023-05-19T23:36:53.904Z,51.52
2023-05-19T23:39:25.103Z,51.66
2023-05-19T23:41:53.887Z,51.77
2023-05-19T23:44:22.760Z,52.00
2023-05-19T23:46:51.690Z,52.02
2023-05-19T23:49:20.677Z,52.25
2023-05-19T23:51:49.631Z,52.27
2023-05-19T23:54:18.560Z,52.43
2023-05-19T23:56:47.292Z,52.53
2023-05-19T23:59:16.052Z,52.79
